Time;durP1;ratioP1;P1;durP2;ratioP2;P2;SDS_P1;SDS_P2;PMS_P1;PMS_P2;Temp;Humidity;BMP_temperature;BMP_pressure;BME280_temperature;BME280_humidity;BME280_pressure;Samples;Min_cycle;Max_cycle;Signal;HPM_P1;HPM_P2
2021/03/23 00:00:45;;;;;;;44.53;7.78;;;2.60;99.90;;;;;;5089779;28;20384;-60
2021/03/23 00:03:13;;;;;;;42.35;7.35;;;2.60;99.90;;;;;;5087326;28;20383;-59
2021/03/23 00:05:40;;;;;;;38.53;6.85;;;2.50;99.90;;;;;;5090629;28;20872;-59
2021/03/23 00:08:36;;;;;;;42.80;6.95;;;2.50;99.90;;;;;;5088511;28;20376;-59
2021/03/23 00:11:09;;;;;;;45.03;6.93;;;2.60;99.90;;;;;;5088265;28;20397;-60
2021/03/23 00:13:39;;;;;;;37.35;6.35;;;2.60;99.90;;;;;;5090794;28;20369;-60
2021/03/23 00:16:05;;;;;;;54.65;8.52;;;2.60;99.90;;;;;;5089741;28;20384;-59
2021/03/23 00:18:32;;;;;;;57.35;7.40;;;2.70;99.90;;;;;;5090490;28;20361;-59
2021/03/23 00:20:58;;;;;;;44.92;7.35;;;2.90;99.90;;;;;;5085621;28;20396;-59
2021/03/23 00:23:24;;;;;;;48.85;6.80;;;3.00;99.90;;;;;;5089654;28;20383;-60
2021/03/23 00:25:50;;;;;;;52.95;6.63;;;2.90;99.90;;;;;;5087997;28;20373;-60
2021/03/23 00:28:17;;;;;;;44.38;7.30;;;2.80;99.90;;;;;;5089083;28;20403;-60
2021/03/23 00:30:43;;;;;;;53.75;8.43;;;2.80;99.90;;;;;;5090450;28;20848;-60
2021/03/23 00:33:09;;;;;;;53.37;9.23;;;2.70;99.90;;;;;;5090795;28;20713;-59
2021/03/23 00:35:35;;;;;;;44.73;6.53;;;2.80;99.90;;;;;;5088475;28;20396;-59
2021/03/23 00:38:03;;;;;;;34.55;7.40;;;2.80;99.90;;;;;;5090685;28;20387;-59
2021/03/23 00:40:31;;;;;;;39.90;7.68;;;2.80;99.90;;;;;;5087228;28;20449;-59
2021/03/23 00:42:57;;;;;;;41.63;7.70;;;2.80;99.90;;;;;;5089550;28;20765;-60
2021/03/23 00:45:24;;;;;;;41.25;6.55;;;2.70;99.90;;;;;;5089543;28;20393;-59
2021/03/23 00:47:50;;;;;;;44.47;6.80;;;2.70;99.90;;;;;;5090435;28;20396;-59
2021/03/23 00:50:16;;;;;;;42.60;7.32;;;2.50;99.90;;;;;;5087794;28;20392;-59
2021/03/23 00:52:43;;;;;;;46.90;8.10;;;2.40;99.90;;;;;;5089914;28;20840;-59
2021/03/23 00:55:09;;;;;;;60.70;9.45;;;2.40;99.90;;;;;;5086978;28;20400;-59
2021/03/23 00:57:35;;;;;;;49.60;7.70;;;2.50;99.90;;;;;;5089087;28;20891;-59
2021/03/23 01:00:04;;;;;;;56.72;7.28;;;2.50;99.90;;;;;;5090418;28;20395;-59
2021/03/23 01:02:30;;;;;;;58.88;8.63;;;2.40;99.90;;;;;;5088803;28;20389;-59
2021/03/23 01:04:57;;;;;;;50.47;7.78;;;2.30;99.90;;;;;;5090011;28;20395;-59
2021/03/23 01:07:23;;;;;;;48.78;8.02;;;2.30;99.90;;;;;;5090504;28;20377;-59
2021/03/23 01:09:49;;;;;;;54.13;7.70;;;2.30;99.90;;;;;;5090073;28;20376;-59
2021/03/23 01:12:15;;;;;;;53.95;8.00;;;2.20;99.90;;;;;;5090309;28;20392;-59
2021/03/23 01:14:41;;;;;;;52.97;8.43;;;2.20;99.90;;;;;;5090068;28;20872;-59
2021/03/23 01:17:08;;;;;;;51.67;7.40;;;2.20;99.90;;;;;;5089316;28;20871;-59
2021/03/23 01:19:34;;;;;;;43.03;6.40;;;2.10;99.90;;;;;;5090097;28;20365;-59
2021/03/23 01:22:00;;;;;;;63.17;9.93;;;2.10;99.90;;;;;;5090501;28;20872;-59
2021/03/23 01:24:26;;;;;;;53.03;7.90;;;2.10;99.90;;;;;;5087315;28;20388;-59
2021/03/23 01:26:53;;;;;;;58.10;8.40;;;2.10;99.90;;;;;;5088312;28;20396;-59
2021/03/23 01:29:19;;;;;;;50.90;7.73;;;2.10;99.90;;;;;;5089772;28;20404;-59
2021/03/23 01:31:45;;;;;;;52.75;8.40;;;2.10;99.90;;;;;;5087972;28;20400;-59
2021/03/23 01:34:11;;;;;;;53.00;8.50;;;2.10;99.90;;;;;;5090082;28;20729;-59
2021/03/23 01:36:37;;;;;;;53.15;7.63;;;2.20;99.90;;;;;;5092007;28;20380;-59
2021/03/23 01:39:04;;;;;;;50.45;8.50;;;2.20;99.90;;;;;;5093763;28;20369;-59
2021/03/23 01:41:31;;;;;;;45.50;7.95;;;2.10;99.90;;;;;;5091575;28;20380;-59
2021/03/23 01:43:57;;;;;;;65.95;7.95;;;2.10;99.90;;;;;;5093616;28;20381;-59
2021/03/23 01:46:39;;;;;;;55.03;8.43;;;2.10;99.90;;;;;;5092594;28;20400;-59
2021/03/23 01:49:08;;;;;;;52.65;9.82;;;2.10;99.90;;;;;;5093395;28;20733;-59
2021/03/23 01:51:34;;;;;;;61.60;9.23;;;2.20;99.90;;;;;;5075491;28;20888;-59
2021/03/23 01:54:04;;;;;;;58.60;10.20;;;2.30;99.90;;;;;;5089728;28;20395;-59
2021/03/23 01:56:32;;;;;;;75.20;9.30;;;2.40;99.90;;;;;;5091763;28;20389;-59
2021/03/23 01:58:58;;;;;;;43.35;6.70;;;2.30;99.90;;;;;;5092237;28;20388;-59
2021/03/23 02:01:25;;;;;;;55.42;7.55;;;2.20;99.90;;;;;;5075447;28;20373;-59
2021/03/23 02:03:51;;;;;;;56.05;7.53;;;2.20;99.90;;;;;;5092802;28;20388;-59
2021/03/23 02:06:38;;;;;;;50.15;6.40;;;2.10;99.90;;;;;;5093496;28;20369;-59
2021/03/23 02:09:07;;;;;;;54.92;7.10;;;2.00;99.90;;;;;;5089658;28;20397;-59
2021/03/23 02:11:34;;;;;;;61.10;8.02;;;1.90;99.90;;;;;;5075156;28;20403;-59
2021/03/23 02:14:01;;;;;;;57.25;8.32;;;1.90;99.90;;;;;;5092029;28;21076;-59
2021/03/23 02:16:27;;;;;;;50.83;7.45;;;1.90;99.90;;;;;;5091025;28;20392;-59
2021/03/23 02:18:53;;;;;;;59.45;7.40;;;1.90;99.90;;;;;;5092890;28;20384;-58
2021/03/23 02:21:20;;;;;;;55.83;8.05;;;1.80;99.90;;;;;;5091563;28;20381;-59
2021/03/23 02:23:51;;;;;;;56.37;7.83;;;1.80;99.90;;;;;;5091729;28;20359;-59
2021/03/23 02:26:23;;;;;;;60.67;8.10;;;1.80;99.90;;;;;;5092833;28;20725;-57
2021/03/23 02:29:12;;;;;;;65.90;12.13;;;1.80;99.90;;;;;;5092212;28;20393;-59
2021/03/23 02:31:44;;;;;;;82.00;15.37;;;1.80;99.90;;;;;;5092568;28;20411;-59
2021/03/23 02:34:12;;;;;;;82.25;14.27;;;1.90;99.90;;;;;;5087691;28;20714;-59
2021/03/23 02:36:39;;;;;;;88.85;14.05;;;2.00;99.90;;;;;;5092705;28;20381;-59
2021/03/23 02:39:06;;;;;;;60.80;10.75;;;2.00;99.90;;;;;;5090131;28;20903;-59
2021/03/23 02:41:32;;;;;;;59.38;10.68;;;2.00;99.90;;;;;;5092601;28;20388;-59
2021/03/23 02:43:59;;;;;;;56.60;10.00;;;2.10;99.90;;;;;;5092725;28;20372;-59
2021/03/23 02:46:25;;;;;;;51.25;7.93;;;2.10;99.90;;;;;;5091726;28;20393;-58
2021/03/23 02:48:51;;;;;;;59.33;8.65;;;2.00;99.90;;;;;;5092241;28;20385;-59
2021/03/23 02:51:17;;;;;;;51.90;8.40;;;1.90;99.90;;;;;;5088673;28;20397;-57
2021/03/23 02:53:47;;;;;;;71.75;10.38;;;1.80;99.90;;;;;;5088997;28;20741;-59
2021/03/23 02:56:13;;;;;;;70.45;11.82;;;1.80;99.90;;;;;;5092079;28;20380;-59
2021/03/23 02:58:39;;;;;;;74.82;10.57;;;1.80;99.90;;;;;;5092080;28;20407;-59
2021/03/23 03:01:05;;;;;;;67.57;11.73;;;1.80;99.90;;;;;;5087902;28;20405;-59
2021/03/23 03:03:32;;;;;;;74.75;11.18;;;1.70;99.90;;;;;;5087589;28;20891;-59
2021/03/23 03:05:58;;;;;;;77.25;12.60;;;1.80;99.90;;;;;;5091868;28;20718;-59
2021/03/23 03:08:24;;;;;;;90.53;15.02;;;1.80;99.90;;;;;;5092167;28;20885;-59
2021/03/23 03:10:50;;;;;;;80.07;13.53;;;1.90;99.90;;;;;;5087978;28;20388;-59
2021/03/23 03:13:19;;;;;;;67.68;11.82;;;2.00;99.90;;;;;;5092199;28;20389;-59
2021/03/23 03:15:45;;;;;;;51.77;10.10;;;1.90;99.90;;;;;;5090887;28;20741;-59
2021/03/23 03:18:12;;;;;;;71.85;11.00;;;1.90;99.90;;;;;;5091493;28;20459;-59
2021/03/23 03:20:38;;;;;;;52.55;9.38;;;1.80;99.90;;;;;;5089780;28;20472;-58
2021/03/23 03:23:04;;;;;;;50.15;10.10;;;1.70;99.90;;;;;;5091815;28;20736;-59
2021/03/23 03:25:30;;;;;;;55.60;9.50;;;1.80;99.90;;;;;;5083559;28;20394;-59
2021/03/23 03:27:56;;;;;;;45.17;8.93;;;1.90;99.90;;;;;;5091345;28;20384;-59
2021/03/23 03:30:25;;;;;;;48.97;8.77;;;1.90;99.90;;;;;;5091568;28;20865;-59
2021/03/23 03:32:52;;;;;;;51.78;9.00;;;2.00;99.90;;;;;;5091306;28;20369;-59
2021/03/23 03:35:18;;;;;;;56.90;8.85;;;2.00;99.90;;;;;;5090268;28;20368;-59
2021/03/23 03:37:45;;;;;;;47.15;8.15;;;2.00;99.90;;;;;;5091546;28;20383;-59
2021/03/23 03:40:12;;;;;;;41.20;9.07;;;1.90;99.90;;;;;;5083150;28;20384;-59
2021/03/23 03:42:38;;;;;;;40.28;9.52;;;2.00;99.90;;;;;;5089961;28;20381;-59
2021/03/23 03:45:07;;;;;;;38.10;9.05;;;2.00;99.90;;;;;;5090304;28;20380;-58
2021/03/23 03:47:33;;;;;;;46.30;9.45;;;2.00;99.90;;;;;;5090936;28;20388;-59
2021/03/23 03:49:59;;;;;;;51.88;9.32;;;2.00;99.90;;;;;;5088934;28;20376;-59
2021/03/23 03:52:25;;;;;;;68.03;11.80;;;2.00;99.90;;;;;;5091119;28;20890;-59
2021/03/23 03:54:51;;;;;;;73.93;11.80;;;2.10;99.90;;;;;;5090915;28;20369;-59
2021/03/23 03:57:18;;;;;;;47.63;9.68;;;2.10;99.90;;;;;;5090918;28;20377;-59
2021/03/23 03:59:44;;;;;;;45.80;8.27;;;2.20;99.90;;;;;;5090476;28;20733;-59
2021/03/23 04:02:10;;;;;;;46.83;8.00;;;2.20;99.90;;;;;;5091184;28;20381;-59
2021/03/23 04:04:36;;;;;;;52.35;8.10;;;2.20;99.90;;;;;;5072235;28;20380;-59
2021/03/23 04:07:03;;;;;;;54.35;8.45;;;2.40;99.90;;;;;;5091211;28;20895;-59
2021/03/23 04:09:29;;;;;;;53.90;9.10;;;2.40;99.90;;;;;;5091075;28;20373;-59
2021/03/23 04:11:55;;;;;;;55.50;8.18;;;2.40;99.90;;;;;;5083644;28;20794;-59
2021/03/23 04:14:21;;;;;;;53.03;9.02;;;2.40;99.90;;;;;;5082777;28;20384;-59
2021/03/23 04:16:47;;;;;;;56.13;9.60;;;2.40;99.90;;;;;;5089611;28;20396;-59
2021/03/23 04:19:13;;;;;;;53.63;9.40;;;2.40;99.90;;;;;;5089482;28;20377;-59
2021/03/23 04:21:39;;;;;;;42.20;9.13;;;2.40;99.90;;;;;;5085258;28;20392;-59
2021/03/23 04:24:06;;;;;;;49.00;9.02;;;2.40;99.90;;;;;;5089732;28;20368;-58
2021/03/23 04:26:32;;;;;;;44.22;8.93;;;2.40;99.90;;;;;;5084456;28;20400;-59
2021/03/23 04:28:58;;;;;;;34.15;7.97;;;2.50;99.90;;;;;;5085008;28;20764;-59
2021/03/23 04:31:39;;;;;;;38.60;7.78;;;2.40;99.90;;;;;;5086699;28;20741;-59
2021/03/23 04:34:06;;;;;;;49.72;8.98;;;2.50;99.90;;;;;;5083537;28;20384;-59
2021/03/23 04:36:33;;;;;;;44.58;7.88;;;2.50;99.90;;;;;;5088037;28;20395;-59
2021/03/23 04:38:59;;;;;;;44.90;8.82;;;2.60;99.90;;;;;;5086809;28;20402;-59
2021/03/23 04:41:25;;;;;;;49.47;9.25;;;2.60;99.90;;;;;;5086703;28;20389;-59
2021/03/23 04:43:52;;;;;;;49.72;9.05;;;2.70;99.90;;;;;;5089259;28;20879;-59
2021/03/23 04:46:22;;;;;;;56.17;9.73;;;2.70;99.90;;;;;;5084863;28;20758;-59
2021/03/23 04:48:48;;;;;;;44.72;8.75;;;2.70;99.90;;;;;;5089050;28;20372;-59
2021/03/23 04:51:14;;;;;;;48.03;8.48;;;2.80;99.90;;;;;;5089752;28;20407;-59
2021/03/23 04:53:41;;;;;;;50.38;9.50;;;2.80;99.90;;;;;;5085132;28;20903;-59
2021/03/23 04:56:08;;;;;;;50.78;9.63;;;2.90;99.90;;;;;;5086364;28;20388;-59
2021/03/23 04:58:34;;;;;;;60.40;9.68;;;2.90;99.90;;;;;;5085967;28;20399;-59
2021/03/23 05:01:01;;;;;;;50.17;8.98;;;3.00;99.90;;;;;;5088858;28;20391;-59
2021/03/23 05:03:29;;;;;;;57.08;11.52;;;3.10;99.90;;;;;;5085110;28;20486;-59
2021/03/23 05:05:58;;;;;;;60.03;11.40;;;3.10;99.90;;;;;;5088019;28;20400;-59
2021/03/23 05:08:24;;;;;;;58.85;10.07;;;3.20;99.90;;;;;;5090346;28;20388;-59
2021/03/23 05:10:52;;;;;;;67.93;10.30;;;3.20;99.90;;;;;;5086325;28;20881;-59
2021/03/23 05:13:18;;;;;;;74.43;11.57;;;3.30;99.90;;;;;;5094452;28;20380;-59
2021/03/23 05:15:44;;;;;;;65.47;11.18;;;3.30;99.90;;;;;;5093217;28;20389;-59
2021/03/23 05:18:11;;;;;;;61.50;11.18;;;3.40;99.90;;;;;;5094467;28;20388;-59
2021/03/23 05:20:37;;;;;;;79.60;12.10;;;3.40;99.90;;;;;;5092296;28;20361;-59
2021/03/23 05:23:03;;;;;;;73.50;12.90;;;3.50;99.90;;;;;;5091103;28;20718;-59
2021/03/23 05:25:29;;;;;;;67.25;11.50;;;3.50;99.90;;;;;;5088551;28;20381;-59
2021/03/23 05:27:55;;;;;;;64.72;12.13;;;3.50;99.90;;;;;;5093058;28;20412;-59
2021/03/23 05:30:22;;;;;;;56.30;11.98;;;3.60;99.90;;;;;;5090004;28;20391;-59
2021/03/23 05:32:48;;;;;;;71.72;11.75;;;3.70;99.90;;;;;;5091346;28;20400;-60
2021/03/23 05:35:15;;;;;;;112.93;13.93;;;3.70;99.90;;;;;;5092493;28;20360;-61
2021/03/23 05:37:41;;;;;;;92.70;14.00;;;3.70;99.90;;;;;;5093840;28;20380;-61
2021/03/23 05:40:08;;;;;;;111.88;15.77;;;3.80;99.90;;;;;;5093806;28;20482;-61
2021/03/23 05:42:38;;;;;;;106.67;15.77;;;3.80;99.90;;;;;;5093823;28;20368;-61
2021/03/23 05:45:31;;;;;;;116.68;16.25;;;3.80;99.90;;;;;;5091285;28;20373;-61
2021/03/23 05:48:23;;;;;;;98.93;15.33;;;3.90;99.90;;;;;;5092295;28;20369;-61
2021/03/23 05:51:13;;;;;;;134.27;16.17;;;3.90;99.90;;;;;;5090001;28;20372;-61
2021/03/23 05:53:50;;;;;;;109.17;17.00;;;4.00;99.90;;;;;;5075981;28;20372;-60
2021/03/23 05:56:16;;;;;;;95.72;16.88;;;4.00;99.90;;;;;;5053566;28;20758;-61
2021/03/23 05:58:48;;;;;;;109.90;16.08;;;4.00;99.90;;;;;;5079518;28;20392;-61
2021/03/23 06:01:25;;;;;;;106.57;16.73;;;4.10;99.90;;;;;;5066216;28;20375;-60
2021/03/23 06:04:18;;;;;;;110.32;17.08;;;4.10;99.90;;;;;;5080150;28;20390;-60
2021/03/23 06:06:48;;;;;;;114.00;17.05;;;4.20;99.90;;;;;;5077914;28;20391;-61
2021/03/23 06:09:15;;;;;;;108.28;16.95;;;4.30;99.90;;;;;;5077303;28;20378;-61
2021/03/23 06:11:42;;;;;;;99.95;16.85;;;4.30;99.90;;;;;;5083528;28;20409;-61
2021/03/23 06:14:31;;;;;;;104.95;16.55;;;4.40;99.90;;;;;;5077759;28;20376;-62
2021/03/23 06:17:00;;;;;;;98.43;16.80;;;4.40;99.90;;;;;;5064403;28;20394;-63
2021/03/23 06:19:48;;;;;;;100.18;16.02;;;4.50;99.90;;;;;;5082605;28;20373;-62
2021/03/23 06:22:23;;;;;;;95.97;16.48;;;4.50;99.90;;;;;;5080614;28;20453;-62
2021/03/23 06:25:07;;;;;;;85.67;15.67;;;4.60;99.90;;;;;;5094292;28;20381;-61
2021/03/23 06:27:45;;;;;;;78.60;15.40;;;4.70;99.90;;;;;;5083666;28;20401;-62
2021/03/23 06:30:14;;;;;;;75.47;15.27;;;4.70;99.90;;;;;;5063404;28;20905;-62
2021/03/23 06:32:56;;;;;;;72.43;14.65;;;4.80;99.90;;;;;;5087659;28;20415;-62
2021/03/23 06:35:28;;;;;;;64.38;13.80;;;4.90;99.90;;;;;;5080046;28;20874;-62
2021/03/23 06:37:55;;;;;;;69.22;13.55;;;5.00;99.90;;;;;;5082193;28;20702;-61
2021/03/23 06:40:26;;;;;;;66.50;13.93;;;5.00;99.90;;;;;;5086146;28;20384;-62
2021/03/23 06:42:54;;;;;;;59.80;13.98;;;5.10;99.90;;;;;;5083640;28;20364;-61
2021/03/23 06:45:33;;;;;;;59.55;12.90;;;5.10;99.90;;;;;;5085184;28;20419;-61
2021/03/23 06:48:20;;;;;;;63.10;13.50;;;5.20;99.90;;;;;;5085016;28;20365;-61
2021/03/23 06:50:46;;;;;;;62.88;13.10;;;5.20;99.90;;;;;;5084532;28;20382;-62
2021/03/23 06:53:18;;;;;;;73.82;13.82;;;5.20;99.90;;;;;;5081978;28;20405;-61
2021/03/23 06:55:45;;;;;;;63.67;12.75;;;5.30;99.90;;;;;;5083217;28;20731;-61
2021/03/23 06:58:29;;;;;;;62.13;13.13;;;5.30;99.90;;;;;;5082908;28;20869;-61
2021/03/23 07:01:13;;;;;;;57.63;11.10;;;5.30;99.90;;;;;;5091385;28;20373;-61
2021/03/23 07:03:40;;;;;;;52.55;11.45;;;5.30;99.90;;;;;;5087499;28;20385;-61
2021/03/23 07:06:23;;;;;;;55.92;11.95;;;5.30;99.90;;;;;;5088979;28;20377;-63
2021/03/23 07:09:14;;;;;;;58.47;12.20;;;5.30;99.90;;;;;;5092054;28;20365;-62
2021/03/23 07:11:53;;;;;;;55.97;11.80;;;5.40;99.90;;;;;;5090977;28;20401;-62
2021/03/23 07:14:31;;;;;;;54.35;11.45;;;5.50;99.90;;;;;;5089823;28;20377;-62
2021/03/23 07:17:24;;;;;;;54.97;11.73;;;5.50;99.90;;;;;;5090219;28;20403;-62
2021/03/23 07:19:56;;;;;;;49.33;11.50;;;5.60;99.90;;;;;;5089075;28;20385;-62
2021/03/23 07:22:41;;;;;;;41.83;10.88;;;5.60;99.90;;;;;;5089254;28;20369;-62
2021/03/23 07:25:26;;;;;;;45.60;10.75;;;5.70;99.90;;;;;;5089202;28;20879;-62
2021/03/23 07:28:11;;;;;;;43.35;10.30;;;5.70;99.90;;;;;;5086258;28;20392;-62
2021/03/23 07:30:39;;;;;;;49.10;11.18;;;5.70;99.90;;;;;;5089863;28;20392;-62
2021/03/23 07:33:10;;;;;;;58.70;12.98;;;5.70;99.90;;;;;;5079551;28;20406;-62
2021/03/23 07:35:37;;;;;;;42.10;12.30;;;5.70;99.90;;;;;;5085965;28;20396;-62
2021/03/23 07:38:07;;;;;;;44.35;12.50;;;5.70;99.90;;;;;;5070940;28;20401;-62
2021/03/23 07:40:38;;;;;;;48.97;13.90;;;5.70;99.90;;;;;;5086316;28;20431;-63
2021/03/23 07:43:26;;;;;;;40.03;13.30;;;5.70;99.90;;;;;;5088624;28;20388;-62
2021/03/23 07:46:08;;;;;;;44.05;14.38;;;5.80;99.90;;;;;;5087301;28;20392;-62
2021/03/23 07:48:52;;;;;;;52.37;14.70;;;5.80;99.90;;;;;;5086301;28;20745;-62
2021/03/23 07:51:34;;;;;;;41.45;14.43;;;5.70;99.90;;;;;;5087282;28;20387;-62
2021/03/23 07:54:25;;;;;;;63.72;15.07;;;5.60;99.90;;;;;;5089347;28;20377;-62
2021/03/23 07:56:57;;;;;;;45.17;15.30;;;5.50;99.90;;;;;;5070628;28;20861;-62
2021/03/23 08:00:02;;;;;;;65.40;13.07;;;5.50;99.90;;;;;;5085788;28;20403;-62
2021/03/23 08:02:56;;;;;;;67.53;13.23;;;5.40;99.90;;;;;;5088415;28;20384;-62
2021/03/23 08:06:00;;;;;;;60.42;12.98;;;5.30;99.90;;;;;;5085278;28;20388;-60
2021/03/23 08:08:31;;;;;;;64.10;12.20;;;5.40;99.90;;;;;;5086885;28;20391;-59
2021/03/23 08:11:00;;;;;;;65.68;13.07;;;5.30;99.90;;;;;;5089546;28;20388;-62
2021/03/23 08:13:27;;;;;;;74.93;12.65;;;5.30;99.90;;;;;;5087885;28;20438;-62
2021/03/23 08:16:05;;;;;;;96.67;12.83;;;5.20;99.90;;;;;;5088920;28;20384;-60
2021/03/23 08:18:56;;;;;;;68.78;12.88;;;5.10;99.90;;;;;;5089708;28;20391;-59
2021/03/23 08:21:41;;;;;;;95.10;12.65;;;5.10;99.90;;;;;;5087466;28;20377;-60
2021/03/23 08:24:24;;;;;;;85.45;13.45;;;5.20;99.90;;;;;;5084625;28;20377;-62
2021/03/23 08:27:17;;;;;;;98.50;13.95;;;5.10;99.90;;;;;;5087915;28;20388;-60
2021/03/23 08:29:49;;;;;;;79.95;12.48;;;5.00;99.90;;;;;;5087734;28;20407;-62
2021/03/23 08:32:41;;;;;;;50.63;12.60;;;5.00;99.90;;;;;;5088495;28;20408;-60
2021/03/23 08:35:23;;;;;;;36.88;12.55;;;5.00;99.90;;;;;;5085230;28;20368;-60
2021/03/23 08:38:19;;;;;;;45.08;12.60;;;5.00;99.90;;;;;;5087034;28;20384;-62
2021/03/23 08:41:14;;;;;;;39.25;12.75;;;5.10;99.90;;;;;;5088955;28;20732;-62
2021/03/23 08:43:41;;;;;;;32.50;13.07;;;5.20;99.90;;;;;;5080951;28;20390;-62
2021/03/23 08:46:34;;;;;;;28.42;12.15;;;5.20;99.90;;;;;;5091235;28;20399;-62
2021/03/23 08:49:01;;;;;;;28.63;12.48;;;5.30;99.90;;;;;;5090753;28;20729;-62
2021/03/23 08:51:29;;;;;;;54.38;13.07;;;5.30;99.90;;;;;;5074257;28;20392;-62
2021/03/23 08:54:01;;;;;;;66.47;14.87;;;5.30;99.90;;;;;;5088986;28;20806;-62
2021/03/23 08:56:47;;;;;;;36.00;14.00;;;5.20;99.90;;;;;;5091276;28;20748;-62
2021/03/23 08:59:35;;;;;;;28.55;12.30;;;5.30;99.90;;;;;;5088170;28;20707;-62
2021/03/23 09:02:22;;;;;;;35.60;12.73;;;5.30;99.90;;;;;;5093579;28;20363;-63
2021/03/23 09:04:51;;;;;;;29.98;11.18;;;5.40;99.90;;;;;;5089728;28;20392;-62
2021/03/23 09:07:20;;;;;;;36.95;12.23;;;5.40;99.90;;;;;;5091939;28;20376;-62
2021/03/23 09:09:48;;;;;;;37.30;11.93;;;5.50;99.90;;;;;;5075178;28;20745;-62
2021/03/23 09:12:36;;;;;;;37.38;11.93;;;5.60;99.90;;;;;;5089930;28;20761;-62
2021/03/23 09:15:24;;;;;;;33.30;12.02;;;5.50;99.90;;;;;;5090405;28;20384;-62
2021/03/23 09:17:56;;;;;;;29.70;11.60;;;5.50;99.90;;;;;;5091586;28;20384;-62
2021/03/23 09:20:32;;;;;;;31.00;11.98;;;5.40;99.90;;;;;;5092775;28;20393;-62
2021/03/23 09:23:19;;;;;;;26.50;10.40;;;5.30;99.90;;;;;;5092552;28;21058;-62
2021/03/23 09:26:06;;;;;;;28.30;10.50;;;5.40;99.90;;;;;;5093557;28;20396;-63
2021/03/23 09:28:32;;;;;;;32.75;10.88;;;5.50;99.90;;;;;;5088826;28;20912;-62
2021/03/23 09:31:02;;;;;;;28.27;10.05;;;5.60;99.90;;;;;;5090317;28;20384;-62
2021/03/23 09:33:30;;;;;;;27.70;10.60;;;5.60;99.90;;;;;;5089322;28;20407;-62
2021/03/23 09:36:10;;;;;;;29.95;9.80;;;5.60;99.90;;;;;;5073163;28;20744;-62
2021/03/23 09:38:47;;;;;;;31.92;10.27;;;5.60;99.90;;;;;;5087886;28;20380;-62
2021/03/23 09:41:27;;;;;;;30.35;9.50;;;5.60;99.90;;;;;;5086562;28;20384;-62
2021/03/23 09:44:05;;;;;;;30.23;9.55;;;5.70;99.90;;;;;;5089078;28;20864;-62
2021/03/23 09:46:31;;;;;;;24.60;9.45;;;5.80;99.90;;;;;;5091158;28;20385;-62
2021/03/23 09:49:27;;;;;;;24.27;9.25;;;5.90;99.90;;;;;;5091801;28;20396;-62
2021/03/23 09:52:06;;;;;;;24.52;8.05;;;5.90;99.90;;;;;;5086860;28;20905;-60
2021/03/23 09:54:34;;;;;;;30.73;8.65;;;5.90;99.90;;;;;;5091713;28;20387;-60
2021/03/23 09:57:11;;;;;;;25.75;9.57;;;5.70;99.90;;;;;;5090586;28;20388;-60
2021/03/23 09:59:42;;;;;;;32.67;9.57;;;5.70;99.90;;;;;;5089240;28;20396;-61
2021/03/23 10:02:22;;;;;;;38.33;10.85;;;5.70;99.90;;;;;;5071421;28;20383;-61
2021/03/23 10:04:49;;;;;;;26.70;8.65;;;5.70;99.90;;;;;;5087799;28;20396;-61
2021/03/23 10:07:25;;;;;;;27.35;9.85;;;5.90;99.90;;;;;;5087674;28;20417;-60
2021/03/23 10:09:51;;;;;;;27.13;9.27;;;5.80;99.90;;;;;;5077471;28;20401;-61
2021/03/23 10:12:30;;;;;;;23.80;8.95;;;5.80;99.90;;;;;;5078139;28;20411;-61
2021/03/23 10:14:56;;;;;;;23.35;8.27;;;5.90;99.90;;;;;;5079813;28;20425;-61
2021/03/23 10:17:25;;;;;;;29.75;8.85;;;6.00;99.90;;;;;;5081697;28;20735;-60
2021/03/23 10:20:00;;;;;;;23.10;8.32;;;5.90;99.90;;;;;;5084022;28;20386;-61
2021/03/23 10:22:35;;;;;;;25.25;8.13;;;6.00;99.90;;;;;;5076255;28;20386;-61
2021/03/23 10:25:04;;;;;;;25.67;8.68;;;5.90;99.90;;;;;;5081646;28;20387;-60
2021/03/23 10:27:37;;;;;;;24.58;8.43;;;6.00;99.90;;;;;;5075461;28;20382;-60
2021/03/23 10:30:11;;;;;;;31.77;9.70;;;6.10;99.90;;;;;;5084566;28;20392;-61
2021/03/23 10:32:42;;;;;;;18.00;7.70;;;6.10;99.90;;;;;;5084153;28;20416;-62
2021/03/23 10:35:29;;;;;;;23.15;8.27;;;6.10;99.90;;;;;;5080089;28;20428;-61
2021/03/23 10:38:14;;;;;;;20.63;8.80;;;6.10;99.90;;;;;;5080593;28;20389;-61
2021/03/23 10:40:41;;;;;;;23.33;7.82;;;6.10;99.90;;;;;;5085032;28;20384;-62
2021/03/23 10:43:34;;;;;;;18.63;8.30;;;6.10;99.90;;;;;;5072429;28;20880;-61
2021/03/23 10:46:05;;;;;;;20.00;8.32;;;6.00;99.90;;;;;;5078175;28;20395;-61
2021/03/23 10:48:36;;;;;;;21.17;8.30;;;6.00;99.90;;;;;;5092000;28;20387;-56
2021/03/23 10:51:11;;;;;;;17.70;8.07;;;6.00;99.90;;;;;;5088809;28;20391;-61
2021/03/23 10:53:38;;;;;;;20.70;8.55;;;6.20;99.90;;;;;;5085083;28;20445;-62
2021/03/23 10:56:20;;;;;;;25.35;8.88;;;6.10;99.90;;;;;;5079870;28;20395;-62
2021/03/23 10:59:09;;;;;;;18.33;8.27;;;6.20;99.90;;;;;;5077701;28;20394;-61
2021/03/23 11:01:35;;;;;;;18.73;7.53;;;6.20;99.90;;;;;;5083190;28;20876;-61
2021/03/23 11:04:17;;;;;;;19.85;7.53;;;6.20;99.90;;;;;;5088638;28;20404;-61
2021/03/23 11:06:43;;;;;;;17.73;6.80;;;6.10;99.90;;;;;;5083872;28;20710;-61
2021/03/23 11:09:14;;;;;;;19.15;6.93;;;6.10;99.90;;;;;;5077685;28;20381;-61
2021/03/23 11:11:40;;;;;;;17.52;6.53;;;6.20;99.90;;;;;;5087202;28;20875;-61
2021/03/23 11:14:07;;;;;;;21.67;6.10;;;6.50;99.90;;;;;;5086254;28;20411;-61
2021/03/23 11:30:32;;;;;;;18.48;6.35;;;6.60;99.90;;;;;;5016048;28;20419;-62
2021/03/23 11:32:58;;;;;;;18.40;7.25;;;6.80;99.90;;;;;;5083430;28;20486;-62
2021/03/23 11:35:24;;;;;;;19.10;6.25;;;6.80;99.90;;;;;;5083948;28;20379;-62
2021/03/23 11:37:50;;;;;;;17.20;6.88;;;6.90;99.90;;;;;;5079689;28;20768;-63
2021/03/23 11:40:17;;;;;;;17.67;6.20;;;7.00;99.90;;;;;;5071688;28;20378;-63
2021/03/23 11:42:44;;;;;;;;;;;7.10;99.90;;;;;;5080827;28;20399;-60
2021/03/23 11:45:17;;;;;;;;;;;7.20;99.90;;;;;;5077562;28;19916;-62
2021/03/23 11:47:44;;;;;;;;;;;7.10;99.90;;;;;;5091063;28;19907;-62
2021/03/23 11:50:20;;;;;;;24.37;5.97;;;7.10;99.90;;;;;;5083776;28;20401;-62
2021/03/23 11:52:46;;;;;;;;;;;7.10;99.90;;;;;;5079420;28;20416;-62
2021/03/23 11:55:17;;;;;;;21.85;6.25;;;7.00;99.90;;;;;;5078082;28;20385;-62
2021/03/23 11:57:43;;;;;;;;;;;6.80;99.90;;;;;;5085178;28;20754;-62
2021/03/23 12:00:09;;;;;;;;;;;6.70;99.90;;;;;;5088187;28;19912;-63
2021/03/23 12:02:35;;;;;;;;;;;6.60;99.90;;;;;;5087704;28;19912;-63
2021/03/23 12:05:02;;;;;;;;;;;6.60;99.90;;;;;;5089322;28;19919;-62
2021/03/23 12:07:40;;;;;;;;;;;6.70;99.90;;;;;;5090965;28;20292;-62
2021/03/23 12:10:09;;;;;;;;;;;6.90;99.90;;;;;;5085900;28;20284;-62
2021/03/23 12:12:38;;;;;;;;;;;7.10;99.90;;;;;;5091431;28;19978;-62
2021/03/23 12:15:10;;;;;;;;;;;7.30;99.90;;;;;;5084009;28;20398;-63
2021/03/23 12:17:36;;;;;;;;;;;7.40;99.90;;;;;;5086833;28;19909;-63
2021/03/23 12:20:11;;;;;;;;;;;7.20;99.90;;;;;;5080857;28;19919;-63
2021/03/23 12:22:37;;;;;;;;;;;7.30;99.90;;;;;;5090869;28;19919;-62
2021/03/23 12:25:04;;;;;;;;;;;7.40;99.90;;;;;;5077816;28;19939;-63
2021/03/23 12:27:30;;;;;;;;;;;7.40;99.90;;;;;;5083140;28;19912;-63
2021/03/23 12:30:00;;;;;;;;;;;7.40;99.90;;;;;;5071403;28;20220;-63
2021/03/23 12:32:26;;;;;;;;;;;7.60;99.90;;;;;;5077039;28;19927;-62
2021/03/23 12:34:52;;;;;;;;;;;8.00;99.90;;;;;;5082087;28;20364;-62
2021/03/23 12:37:19;;;;;;;;;;;8.20;99.90;;;;;;5072501;28;19924;-63
2021/03/23 12:39:45;;;;;;;;;;;8.00;99.90;;;;;;5072962;28;19912;-62
2021/03/23 12:42:11;;;;;;;;;;;8.10;99.90;;;;;;5071322;28;19917;-62
2021/03/23 12:44:37;;;;;;;;;;;8.10;99.90;;;;;;5096157;28;19927;-63
2021/03/23 12:47:03;;;;;;;;;;;8.20;99.90;;;;;;5093462;28;19916;-60
2021/03/23 12:49:29;;;;;;;;;;;8.00;99.90;;;;;;5086629;28;19924;-63
2021/03/23 12:51:55;;;;;;;;;;;8.20;99.90;;;;;;5084120;28;19916;-63
2021/03/23 12:54:30;;;;;;;;;;;8.00;99.90;;;;;;5098341;28;19924;-62
2021/03/23 12:56:57;;;;;;;;;;;8.00;99.90;;;;;;5089375;28;19927;-62
2021/03/23 12:59:24;;;;;;;;;;;8.00;99.90;;;;;;5081618;28;19916;-63
2021/03/23 13:01:50;;;;;;;;;;;8.10;99.90;;;;;;5077873;28;19916;-62
2021/03/23 13:04:16;;;;;;;;;;;8.20;99.90;;;;;;5083345;28;19921;-63
2021/03/23 13:06:42;;;;;;;;;;;8.10;99.90;;;;;;5088437;28;19934;-62
2021/03/23 13:09:11;;;;;;;;;;;8.10;99.90;;;;;;5092795;28;19916;-63
2021/03/23 13:11:38;;;;;;;;;;;8.30;99.90;;;;;;5081078;28;19921;-62
2021/03/23 13:14:04;;;;;;;;;;;8.40;99.90;;;;;;5090019;28;20387;-63
2021/03/23 13:16:30;;;;;;;;;;;8.20;99.90;;;;;;5086714;28;19919;-62
2021/03/23 13:18:56;;;;;;;;;;;8.30;99.90;;;;;;5081710;28;20349;-63
2021/03/23 13:21:23;;;;;;;;;;;8.30;99.90;;;;;;5080793;28;19926;-63
2021/03/23 13:23:58;;;;;;;;;;;8.30;99.90;;;;;;5070297;28;19913;-63
2021/03/23 13:26:24;;;;;;;;;;;8.30;99.90;;;;;;5071939;28;20384;-62
2021/03/23 13:28:58;;;;;;;;;;;8.40;99.90;;;;;;5075204;28;19920;-62
2021/03/23 13:31:25;;;;;;;;;;;8.50;99.90;;;;;;5080630;28;19917;-62